LZTT/TAT METAR and TAF weather

Enter ICAO airport designator
Station Type Date Time Source
LZTT METAR 2020/01/29 03:30 UTC NOAA

LZTT 290330Z 26018KT 9999 FEW013 M01/M04 Q0999


Station Type Date Time Source
LZTT Decoded METAR 2020/01/29 03:30 UTC NOAA

Poprad / Tatry, Slovakia (LZTT) 49-04N 020-15E 695M
Jan 28, 2020 - 10:30 PM EST / 2020.01.29 0330 UTC
Wind: from the W (260 degrees) at 21 MPH (18 KT):0
Visibility: greater than 7 mile(s):0
Sky conditions: mostly clear
Temperature: 30 F (-1 C)
Windchill: 17 F (-8 C):1
Dew Point: 24 F (-4 C)
Relative Humidity: 80%
Pressure (altimeter): 29.50 in. Hg (0999 hPa)
ob: LZTT 290330Z 26018KT 9999 FEW013 M01/M04 Q0999
cycle: 3

Station Type Date Time Source
LZTT TAF 2020/01/28 18:29 UTC NOAA

TAF
AMD LZTT 281822Z 2818/2918 13006KT 8000 -SN FEW010 SCT030
TEMPO 2818/2822 2000 SN BKN008 OVC025
BECMG 2900/2902 25010KT CAVOK
TEMPO 2906/2918 27018KT 8000 -SHSN SCT030 BKN050

Example: see airport list